This is the latest recevied weather packets stored in our database for station/object OK1MAY-13. If no packets are shown the sender has not sent any weather packets the latest 10 day(s).
| Time | Temp. | Humidity | Pressure | Rain* | Wind** | Luminosity | Snow |
|---|---|---|---|---|---|---|---|
| 1787470415 | 18.33° C | 67% | 1024.7 hPa | - | - | - | - |
| 1787469815 | 17.78° C | 70% | 1024.7 hPa | - | - | - | - |
| 1787469215 | 17.22° C | 70% | 1024.6 hPa | - | - | - | - |
| 1787468615 | 16.67° C | 72% | 1024.7 hPa | - | - | - | - |
| 1787468015 | 16.67° C | 72% | 1024.7 hPa | - | - | - | - |
| 1787467415 | 15.56° C | 77% | 1024.7 hPa | - | - | - | - |
| 1787466815 | 15° C | 80% | 1024.7 hPa | - | - | - | - |
| 1787466215 | 13.89° C | 83% | 1024.5 hPa | - | - | - | - |
| 1787465615 | 12.78° C | 88% | 1024.6 hPa | - | - | - | - |
| 1787465015 | 11.67° C | 94% | 1024.5 hPa | - | - | - | - |
| 1787464415 | 10° C | 95% | 1024.5 hPa | - | - | - | - |
| 1787463815 | 8.89° C | 94% | 1024.6 hPa | - | - | - | - |
| 1787463215 | 8.33° C | 94% | 1024.5 hPa | - | - | - | - |
| 1787462615 | 7.78° C | 94% | 1024.4 hPa | - | - | - | - |
| 1787462015 | 7.78° C | 94% | 1024.3 hPa | - | - | - | - |
| 1787461423 | 7.22° C | 95% | 1024.4 hPa | - | - | - | - |
| 1787410730 | 23.33° C | 52% | 1019.1 hPa | - | - | - | - |
| 1787410130 | 23.33° C | 50% | 1018.8 hPa | - | - | - | - |
| 1787409530 | 23.33° C | 51% | 1018.8 hPa | - | - | - | - |
| 1787408930 | 22.78° C | 52% | 1018.7 hPa | - | - | - | - |
| 1787408330 | 23.33° C | 54% | 1018.7 hPa | - | - | - | - |
| 1787407730 | 22.78° C | 55% | 1018.6 hPa | - | - | - | - |
| 1787407130 | 21.11° C | 60% | 1018.5 hPa | - | - | - | - |
| 1787406530 | 22.22° C | 59% | 1018.3 hPa | - | - | - | - |
| 1787405930 | 22.22° C | 55% | 1018.1 hPa | - | - | - | - |
* Rain since midnight (hover to see other rain measurements)
** Current wind speed in m/s (hover to see current wind gust speed)